Hauptseite
METAR-TAF:

METAR-TAF

Flughäfen :

Cape May County Airport

Wildwood, New Jersey, Vereinigte Staaten

Breite: 39-01N, Länge: 074-55W, Höhe: 7 m

Beobachtung

Neuester Wetterbericht von vor 41 Minuten, um 19:56 UTC
Wind 11 kt aus Nord/Nordwest, Böen bis zu 20 kt
Temperatur 14°C
Luftfeuchtigkeit 51%
Luftdruck 1006 hPa
Sichtweite: 16.1 km
Geschlossene Wolkendecke in der Höhe von 4500 ft

METAR: KWWD 031956Z AUTO 33011G20KT 10SM OVC045 14/04 A2971 RMK AO2 SLP063 T01390044

Zeit: 16:37 (20:37 UTC)


TAF: fehlend

Wetterbeobachtungen und Prognosen von mehr als 4000 Flughäfen (METAR und TAF Bericht).

Die verfügbaren Stationen werden durch gelbe und rote Markierungen auf der Karte dargestellt.

Führen Sie die Maus auf sie, um den Namen der Station zu sehen.

Darauf klicken, um die Beobachtung von Wetterbeobachtungen und Prognosen zu sehen.

Um die Karte zu ändern : klicken Sie auf den grünen Tasten mit einem schwarzen Kreuz Zum Vergrößern, auf den grünen Button mit einem Gedankenstrich zu verkleinern, oder auf die grünen Pfeile für benachbarte Karten.


METAR-TAF: